createdAt,value
2019-01-15T00:00:57.870Z,7.50
2019-01-15T00:03:26.608Z,7.50
2019-01-15T00:05:54.831Z,7.50
2019-01-15T00:08:24.572Z,7.50
2019-01-15T00:10:53.007Z,7.50
2019-01-15T00:13:23.328Z,7.60
2019-01-15T00:15:52.844Z,7.50
2019-01-15T00:18:21.983Z,7.50
2019-01-15T00:20:51.952Z,7.50
2019-01-15T00:23:20.744Z,7.50
2019-01-15T00:25:48.970Z,7.50
2019-01-15T00:28:19.484Z,7.60
2019-01-15T00:30:48.260Z,7.50
2019-01-15T00:33:18.644Z,7.50
2019-01-15T00:35:47.901Z,7.50
2019-01-15T00:38:16.739Z,7.50
2019-01-15T00:40:45.421Z,7.60
2019-01-15T00:43:15.685Z,7.60
2019-01-15T00:45:45.569Z,7.50
2019-01-15T00:48:14.804Z,7.50
2019-01-15T00:50:43.848Z,7.70
2019-01-15T00:53:14.077Z,7.60
2019-01-15T00:55:43.063Z,7.60
2019-01-15T00:58:12.077Z,7.50
2019-01-15T01:00:40.847Z,7.60
2019-01-15T01:03:09.653Z,7.70
2019-01-15T01:05:38.153Z,7.60
2019-01-15T01:08:07.011Z,7.60
2019-01-15T01:10:35.907Z,7.60
2019-01-15T01:13:07.067Z,7.60
2019-01-15T01:15:36.192Z,7.60
2019-01-15T01:18:04.851Z,7.60
2019-01-15T01:20:35.176Z,7.50
2019-01-15T01:23:04.175Z,7.50
2019-01-15T01:25:34.452Z,7.60
2019-01-15T01:28:03.300Z,7.60
2019-01-15T01:30:31.975Z,7.60
2019-01-15T01:33:01.041Z,7.50
2019-01-15T01:35:29.647Z,7.40
2019-01-15T01:37:58.727Z,7.50
2019-01-15T01:40:27.656Z,7.40
2019-01-15T01:42:57.048Z,7.40
2019-01-15T01:45:26.745Z,7.40
2019-01-15T01:47:55.345Z,7.50
2019-01-15T01:50:24.019Z,7.40
2019-01-15T01:52:54.036Z,7.40
2019-01-15T01:55:22.507Z,7.40
2019-01-15T01:57:50.893Z,7.50
2019-01-15T02:00:21.365Z,7.50
2019-01-15T02:02:50.110Z,7.50
2019-01-15T02:05:19.508Z,7.50
2019-01-15T02:07:48.919Z,7.50
2019-01-15T02:10:19.667Z,7.50
2019-01-15T02:12:48.443Z,7.50
2019-01-15T02:15:19.137Z,7.50
2019-01-15T02:17:47.648Z,7.50
2019-01-15T02:20:17.112Z,7.50
2019-01-15T02:22:46.264Z,7.50
2019-01-15T02:25:15.272Z,7.50
2019-01-15T02:27:47.725Z,7.50
2019-01-15T02:30:18.625Z,7.50
2019-01-15T02:32:49.193Z,7.50
2019-01-15T02:35:17.888Z,7.50
2019-01-15T02:37:46.311Z,7.50
2019-01-15T02:40:15.519Z,7.40
2019-01-15T02:42:46.666Z,7.40
2019-01-15T02:45:18.186Z,7.40
2019-01-15T02:47:46.605Z,7.50
2019-01-15T02:50:16.019Z,7.50
2019-01-15T02:52:44.313Z,7.50
2019-01-15T02:55:16.280Z,7.50
2019-01-15T02:57:44.757Z,7.50
2019-01-15T03:00:20.936Z,7.50
2019-01-15T03:02:49.493Z,7.50
2019-01-15T03:05:19.157Z,7.50
2019-01-15T03:07:47.391Z,7.50
2019-01-15T03:10:16.572Z,7.60
2019-01-15T03:12:54.856Z,7.40
2019-01-15T03:15:19.061Z,7.50
2019-01-15T03:17:48.401Z,7.50
2019-01-15T03:20:17.848Z,7.50
2019-01-15T03:22:47.196Z,7.50
2019-01-15T03:25:16.559Z,7.50
2019-01-15T03:27:45.264Z,7.50
2019-01-15T03:30:16.128Z,7.50
2019-01-15T03:32:44.677Z,7.40
2019-01-15T03:35:13.480Z,7.50
2019-01-15T03:37:41.839Z,7.50
2019-01-15T03:40:15.994Z,7.50
2019-01-15T03:42:45.401Z,7.50
2019-01-15T03:45:14.667Z,7.50
2019-01-15T03:47:44.788Z,7.40
2019-01-15T03:50:13.644Z,7.50
2019-01-15T03:52:42.315Z,7.50
2019-01-15T03:55:11.832Z,7.50
2019-01-15T03:57:40.655Z,7.50
2019-01-15T04:00:16.128Z,7.50
2019-01-15T04:02:46.577Z,7.50
2019-01-15T04:05:17.544Z,7.50
2019-01-15T04:07:47.809Z,7.50
2019-01-15T04:10:16.695Z,7.50
2019-01-15T04:12:45.272Z,7.50
2019-01-15T04:15:14.039Z,7.50
2019-01-15T04:17:42.926Z,7.40
2019-01-15T04:20:12.232Z,7.40
2019-01-15T04:22:41.565Z,7.40
2019-01-15T04:25:12.265Z,7.40
2019-01-15T04:27:40.805Z,7.40
2019-01-15T04:30:13.644Z,7.30
2019-01-15T04:32:41.944Z,7.40
2019-01-15T04:35:10.389Z,7.30
2019-01-15T04:37:38.956Z,7.30
2019-01-15T04:40:08.774Z,7.30
2019-01-15T04:42:37.375Z,7.20
2019-01-15T04:45:07.002Z,7.20
2019-01-15T04:47:36.597Z,7.20
2019-01-15T04:50:05.785Z,7.30
2019-01-15T04:52:34.576Z,7.30
2019-01-15T04:55:03.065Z,7.30
2019-01-15T04:57:31.604Z,7.30
2019-01-15T05:00:00.322Z,7.40
2019-01-15T05:02:29.424Z,7.30
2019-01-15T05:04:58.207Z,7.20
2019-01-15T05:07:26.493Z,7.20
2019-01-15T05:09:56.716Z,7.20
2019-01-15T05:12:25.197Z,7.20
2019-01-15T05:14:53.872Z,7.20
2019-01-15T05:17:22.283Z,7.20
2019-01-15T05:19:52.717Z,7.20
2019-01-15T05:22:21.973Z,7.20
2019-01-15T05:24:50.260Z,7.20
2019-01-15T05:27:19.970Z,7.20
2019-01-15T05:29:49.972Z,7.20
2019-01-15T05:32:18.563Z,7.20
2019-01-15T05:34:47.231Z,7.20
2019-01-15T05:37:16.048Z,7.20
2019-01-15T05:39:45.592Z,7.20
2019-01-15T05:42:14.793Z,7.20
2019-01-15T05:44:44.927Z,7.20
2019-01-15T05:47:13.261Z,7.10
2019-01-15T05:49:42.574Z,7.10
2019-01-15T05:52:13.003Z,7.20
2019-01-15T05:54:41.464Z,7.20
2019-01-15T05:57:11.881Z,7.10
2019-01-15T05:59:41.392Z,7.20
2019-01-15T06:02:09.681Z,7.30
2019-01-15T06:04:38.847Z,7.20
2019-01-15T06:07:07.991Z,7.20
2019-01-15T06:09:36.853Z,7.20
2019-01-15T06:12:05.203Z,7.30
2019-01-15T06:14:34.024Z,7.20
2019-01-15T06:17:03.992Z,7.30
2019-01-15T06:19:32.502Z,7.30
2019-01-15T06:22:03.280Z,7.40
2019-01-15T06:24:33.045Z,7.30
2019-01-15T06:27:01.341Z,7.20
2019-01-15T06:29:29.511Z,7.20
2019-01-15T06:31:57.889Z,7.30
2019-01-15T06:34:26.604Z,7.20
2019-01-15T06:36:55.469Z,7.30
2019-01-15T06:39:26.195Z,7.30
2019-01-15T06:41:56.008Z,7.30
2019-01-15T06:44:24.755Z,7.30
2019-01-15T06:46:54.428Z,7.30
2019-01-15T06:49:22.732Z,7.30
2019-01-15T06:51:52.176Z,7.30
2019-01-15T06:54:21.584Z,7.30
2019-01-15T06:56:51.707Z,7.30
2019-01-15T06:59:20.906Z,7.30
2019-01-15T07:01:49.295Z,7.30
2019-01-15T07:04:18.481Z,7.40
2019-01-15T07:06:47.473Z,7.30
2019-01-15T07:09:16.348Z,7.30
2019-01-15T07:11:45.620Z,7.30
2019-01-15T07:14:14.055Z,7.30
2019-01-15T07:16:42.843Z,7.30
2019-01-15T07:19:11.427Z,7.30
2019-01-15T07:21:40.524Z,7.40
2019-01-15T07:24:09.111Z,7.40
2019-01-15T07:26:37.579Z,7.40
2019-01-15T07:29:06.879Z,7.50
2019-01-15T07:31:35.969Z,7.50
2019-01-15T07:34:05.085Z,7.40
2019-01-15T07:36:33.671Z,7.40
2019-01-15T07:39:01.622Z,7.40
2019-01-15T07:41:30.640Z,7.40
2019-01-15T07:44:04.286Z,7.40
2019-01-15T07:46:29.112Z,7.50
2019-01-15T07:48:58.139Z,7.50
2019-01-15T07:51:27.758Z,7.60
2019-01-15T07:53:56.906Z,7.60
2019-01-15T07:56:25.296Z,7.50
2019-01-15T07:58:53.993Z,7.50
2019-01-15T08:01:22.554Z,7.50
2019-01-15T08:03:52.532Z,7.50
2019-01-15T08:06:21.456Z,7.50
2019-01-15T08:08:50.471Z,7.50
2019-01-15T08:11:19.044Z,7.60
2019-01-15T08:13:48.344Z,7.50
2019-01-15T08:16:17.439Z,7.50
2019-01-15T08:18:45.828Z,7.50
2019-01-15T08:21:14.654Z,7.50
2019-01-15T08:23:44.571Z,7.40
2019-01-15T08:26:13.716Z,7.30
2019-01-15T08:28:42.205Z,7.40
2019-01-15T08:31:11.354Z,7.40
2019-01-15T08:33:41.819Z,7.40
2019-01-15T08:36:11.008Z,7.30
2019-01-15T08:38:40.659Z,7.30
2019-01-15T08:41:09.975Z,7.30
2019-01-15T08:43:38.063Z,7.30
2019-01-15T08:46:08.013Z,7.30
2019-01-15T08:48:37.021Z,7.20
2019-01-15T08:51:06.360Z,7.20
2019-01-15T08:53:35.588Z,7.30
2019-01-15T08:56:04.401Z,7.30
2019-01-15T08:58:34.855Z,7.30
2019-01-15T09:01:03.887Z,7.40
2019-01-15T09:03:32.335Z,7.30
2019-01-15T09:06:03.295Z,7.30
2019-01-15T09:08:33.488Z,7.30
2019-01-15T09:11:04.204Z,7.30
2019-01-15T09:13:33.606Z,7.30
2019-01-15T09:16:02.185Z,7.40
2019-01-15T09:18:31.171Z,7.30
2019-01-15T09:21:00.279Z,7.30
2019-01-15T09:23:29.061Z,7.50
2019-01-15T09:25:57.693Z,7.50
2019-01-15T09:28:27.351Z,7.50
2019-01-15T09:30:56.235Z,7.40
2019-01-15T09:33:24.449Z,7.40
2019-01-15T09:35:53.289Z,7.40
2019-01-15T09:38:22.504Z,7.30
2019-01-15T09:40:50.875Z,7.30
2019-01-15T09:43:19.568Z,7.30
2019-01-15T09:45:49.062Z,7.30
2019-01-15T09:48:42.838Z,7.30
2019-01-15T09:51:11.945Z,7.40
2019-01-15T09:53:41.061Z,7.40
2019-01-15T09:56:10.035Z,7.50
2019-01-15T09:58:38.757Z,7.40
2019-01-15T10:01:08.028Z,7.40
2019-01-15T10:03:38.144Z,7.50
2019-01-15T10:06:08.166Z,7.50
2019-01-15T10:08:36.875Z,7.50
2019-01-15T10:11:06.150Z,7.50
2019-01-15T10:13:34.827Z,7.60
2019-01-15T10:16:05.052Z,7.60
2019-01-15T10:18:33.833Z,7.60
2019-01-15T10:21:03.937Z,7.60
2019-01-15T10:23:32.343Z,7.70
2019-01-15T10:26:00.807Z,7.80
2019-01-15T10:28:28.880Z,7.70
2019-01-15T10:31:41.069Z,7.80
2019-01-15T10:34:15.967Z,7.80
2019-01-15T10:36:42.865Z,7.90
2019-01-15T10:39:13.377Z,7.90
2019-01-15T10:41:42.314Z,7.70
2019-01-15T10:44:11.640Z,7.70
2019-01-15T10:46:41.914Z,7.90
2019-01-15T10:49:10.276Z,8.00
2019-01-15T10:51:38.771Z,8.00
2019-01-15T10:54:07.134Z,8.00
2019-01-15T10:56:35.697Z,7.90
2019-01-15T10:59:04.542Z,8.00
2019-01-15T11:01:36.067Z,8.00
2019-01-15T11:04:05.670Z,8.00
2019-01-15T11:06:34.069Z,8.10
2019-01-15T11:09:04.024Z,8.10
2019-01-15T11:11:32.394Z,8.10
2019-01-15T11:14:02.466Z,8.20
2019-01-15T11:16:31.024Z,8.20
2019-01-15T11:18:59.955Z,8.20
2019-01-15T11:21:28.435Z,8.20
2019-01-15T11:23:56.815Z,8.20
2019-01-15T11:26:26.212Z,8.20
2019-01-15T11:28:55.001Z,8.20
2019-01-15T11:31:23.607Z,8.10
2019-01-15T11:33:53.171Z,8.20
2019-01-15T11:36:22.835Z,8.20
2019-01-15T11:38:51.086Z,8.20
2019-01-15T11:41:20.181Z,8.20
2019-01-15T11:43:48.436Z,8.30
2019-01-15T11:46:17.549Z,8.20
2019-01-15T11:48:46.038Z,8.30
2019-01-15T11:51:16.340Z,8.30
2019-01-15T11:53:45.187Z,8.30
2019-01-15T11:56:13.616Z,8.40
2019-01-15T11:58:44.200Z,8.50
2019-01-15T12:01:18.418Z,8.50
2019-01-15T12:04:04.882Z,8.40
2019-01-15T12:06:51.400Z,8.40
2019-01-15T12:09:34.803Z,8.40
2019-01-15T12:12:34.313Z,8.40
2019-01-15T12:15:20.704Z,8.40
2019-01-15T12:18:06.913Z,8.50
2019-01-15T12:20:53.109Z,8.50
2019-01-15T12:23:41.354Z,8.50
2019-01-15T12:26:38.097Z,8.50
2019-01-15T12:29:20.618Z,8.40
2019-01-15T12:32:07.515Z,8.50
2019-01-15T12:34:45.512Z,8.50
2019-01-15T12:37:46.255Z,8.50
2019-01-15T12:40:45.685Z,8.50
2019-01-15T12:43:51.515Z,8.60
2019-01-15T12:46:49.106Z,8.60
2019-01-15T12:49:49.307Z,8.60
2019-01-15T12:52:43.179Z,8.70
2019-01-15T12:55:34.920Z,8.70
2019-01-15T12:58:22.026Z,8.70
2019-01-15T13:01:08.845Z,8.70
2019-01-15T13:04:01.368Z,8.70
2019-01-15T13:06:51.884Z,8.70
2019-01-15T13:09:30.177Z,8.70
2019-01-15T13:12:12.286Z,8.70
2019-01-15T13:15:00.545Z,8.70
2019-01-15T13:17:49.196Z,8.70
2019-01-15T13:20:27.288Z,8.70
2019-01-15T13:23:23.933Z,8.70
2019-01-15T13:26:12.680Z,8.60
2019-01-15T13:29:04.741Z,8.80
2019-01-15T13:31:51.643Z,8.70
2019-01-15T13:34:37.932Z,8.60
2019-01-15T13:37:26.192Z,8.60
2019-01-15T13:40:12.384Z,8.60
2019-01-15T13:43:06.200Z,8.70
2019-01-15T13:46:04.219Z,8.70
2019-01-15T13:48:56.972Z,8.70
2019-01-15T13:51:35.291Z,8.70
2019-01-15T13:54:41.484Z,8.70
2019-01-15T13:57:36.764Z,8.70
2019-01-15T14:00:15.176Z,8.70
2019-01-15T14:02:53.596Z,8.70
2019-01-15T14:05:35.789Z,8.80
2019-01-15T14:08:22.302Z,8.70
2019-01-15T14:11:08.806Z,8.70
2019-01-15T14:14:03.491Z,8.60
2019-01-15T14:16:51.027Z,8.70
2019-01-15T14:19:46.761Z,8.80
2019-01-15T14:22:28.038Z,8.80
2019-01-15T14:25:19.248Z,8.80
2019-01-15T14:28:15.944Z,8.90
2019-01-15T14:31:12.829Z,8.80
2019-01-15T14:34:03.844Z,8.80
2019-01-15T14:36:57.495Z,8.80
2019-01-15T14:39:51.420Z,8.80
2019-01-15T14:42:31.948Z,8.80
2019-01-15T14:45:16.631Z,8.80
2019-01-15T14:48:03.126Z,8.90
2019-01-15T14:50:37.276Z,8.90
2019-01-15T14:53:16.201Z,8.90
2019-01-15T14:56:19.967Z,8.80
2019-01-15T14:59:06.886Z,8.80
2019-01-15T15:01:52.264Z,8.80
2019-01-15T15:04:42.039Z,8.70
2019-01-15T15:07:38.172Z,8.80
2019-01-15T15:10:33.264Z,8.70
2019-01-15T15:13:21.323Z,8.70
2019-01-15T15:16:08.236Z,8.70
2019-01-15T15:18:46.946Z,8.70
2019-01-15T15:21:33.656Z,8.70
2019-01-15T15:24:13.394Z,8.70
2019-01-15T15:26:53.867Z,8.70
2019-01-15T15:29:50.421Z,8.70
2019-01-15T15:32:49.603Z,8.70
2019-01-15T15:35:37.336Z,8.70
2019-01-15T15:38:35.143Z,8.70
2019-01-15T15:41:28.876Z,8.70
2019-01-15T15:44:20.383Z,8.60
2019-01-15T15:47:10.573Z,8.70
2019-01-15T15:49:57.188Z,8.70
2019-01-15T15:52:44.512Z,8.70
2019-01-15T15:55:32.867Z,8.70
2019-01-15T15:58:12.299Z,8.60
2019-01-15T16:01:03.418Z,8.70
2019-01-15T16:03:51.348Z,8.60
2019-01-15T16:06:29.661Z,8.70
2019-01-15T16:09:15.544Z,8.60
2019-01-15T16:12:03.172Z,8.60
2019-01-15T16:14:42.200Z,8.60
2019-01-15T16:17:23.499Z,8.60
2019-01-15T16:20:01.280Z,8.60
2019-01-15T16:22:47.287Z,8.60
2019-01-15T16:25:34.422Z,8.70
2019-01-15T16:28:20.792Z,8.70
2019-01-15T16:31:00.640Z,8.60
2019-01-15T16:33:43.888Z,8.70
2019-01-15T16:36:31.608Z,8.70
2019-01-15T16:39:19.957Z,8.70
2019-01-15T16:42:13.719Z,8.60
2019-01-15T16:45:00.746Z,8.60
2019-01-15T16:47:51.743Z,8.60
2019-01-15T16:50:40.504Z,8.60
2019-01-15T16:53:27.130Z,8.60
2019-01-15T16:56:06.348Z,8.60
2019-01-15T16:59:03.415Z,8.60
2019-01-15T17:01:49.903Z,8.60
2019-01-15T17:04:31.904Z,8.60
2019-01-15T17:07:26.500Z,8.60
2019-01-15T17:10:13.011Z,8.60
2019-01-15T17:13:00.619Z,8.60
2019-01-15T17:15:50.191Z,8.70
2019-01-15T17:18:27.803Z,8.60
2019-01-15T17:21:16.335Z,8.70
2019-01-15T17:24:07.160Z,8.60
2019-01-15T17:27:07.196Z,8.70
2019-01-15T17:29:59.003Z,8.60
2019-01-15T17:32:41.365Z,8.60
2019-01-15T17:35:35.504Z,8.60
2019-01-15T17:38:19.588Z,8.70
2019-01-15T17:40:56.620Z,8.60
2019-01-15T17:43:53.575Z,8.40
2019-01-15T17:46:40.941Z,8.50
2019-01-15T17:49:34.479Z,8.40
2019-01-15T17:52:21.288Z,8.30
2019-01-15T17:55:09.232Z,8.30
2019-01-15T17:57:50.072Z,8.30
2019-01-15T18:00:44.355Z,8.40
2019-01-15T18:03:32.368Z,8.40
2019-01-15T18:06:34.892Z,8.50
2019-01-15T18:09:24.350Z,8.40
2019-01-15T18:12:07.987Z,8.40
2019-01-15T18:15:01.972Z,8.40
2019-01-15T18:17:41.752Z,8.50
2019-01-15T18:20:28.025Z,8.40
2019-01-15T18:23:16.059Z,8.40
2019-01-15T18:26:02.257Z,8.40
2019-01-15T18:28:48.653Z,8.50
2019-01-15T18:31:35.050Z,8.50
2019-01-15T18:34:22.808Z,8.60
2019-01-15T18:37:10.455Z,8.50
2019-01-15T18:40:01.515Z,8.50
2019-01-15T18:42:47.499Z,8.50
2019-01-15T18:45:47.415Z,8.60
2019-01-15T18:48:47.071Z,8.70
2019-01-15T18:51:39.179Z,8.70
2019-01-15T18:54:33.852Z,8.70
2019-01-15T18:57:21.789Z,8.70
2019-01-15T19:00:07.789Z,8.70
2019-01-15T19:02:57.961Z,8.50
2019-01-15T19:06:00.588Z,8.40
2019-01-15T19:08:57.023Z,8.50
2019-01-15T19:11:38.660Z,8.60
2019-01-15T19:14:25.884Z,8.60
2019-01-15T19:17:09.223Z,8.60
2019-01-15T19:19:57.337Z,8.60
2019-01-15T19:22:36.640Z,8.60
2019-01-15T19:25:15.382Z,8.60
2019-01-15T19:27:52.891Z,8.50
2019-01-15T19:30:32.198Z,8.50
2019-01-15T19:33:19.108Z,8.60
2019-01-15T19:36:12.485Z,8.60
2019-01-15T19:39:12.680Z,8.50
2019-01-15T19:42:10.619Z,8.40
2019-01-15T19:44:57.187Z,8.40
2019-01-15T19:47:37.611Z,8.30
2019-01-15T19:50:26.916Z,8.30
2019-01-15T19:53:05.322Z,8.30
2019-01-15T19:55:51.491Z,8.40
2019-01-15T19:58:39.448Z,8.50
2019-01-15T20:01:21.519Z,8.50
2019-01-15T20:04:23.723Z,8.50
2019-01-15T20:07:25.930Z,8.50
2019-01-15T20:10:16.777Z,8.50
2019-01-15T20:12:58.954Z,8.50
2019-01-15T20:15:44.134Z,8.50
2019-01-15T20:18:30.339Z,8.50
2019-01-15T20:21:16.468Z,8.50
2019-01-15T20:23:58.373Z,8.40
2019-01-15T20:26:47.131Z,8.40
2019-01-15T20:29:39.697Z,8.40
2019-01-15T20:32:33.427Z,8.40
2019-01-15T20:35:23.655Z,8.40
2019-01-15T20:38:16.833Z,8.50
2019-01-15T20:41:02.652Z,8.40
2019-01-15T20:43:55.889Z,8.40
2019-01-15T20:46:44.680Z,8.40
2019-01-15T20:49:31.596Z,8.50
2019-01-15T20:52:20.476Z,8.50
2019-01-15T20:55:23.735Z,8.50
2019-01-15T20:58:11.385Z,8.40
2019-01-15T21:00:53.969Z,8.40
2019-01-15T21:03:41.130Z,8.40
2019-01-15T21:06:28.052Z,8.40
2019-01-15T21:09:14.647Z,8.30
2019-01-15T21:12:21.223Z,8.20
2019-01-15T21:15:09.608Z,8.20
2019-01-15T21:17:57.404Z,8.40
2019-01-15T21:20:44.799Z,8.40
2019-01-15T21:23:31.759Z,8.50
2019-01-15T21:26:13.952Z,8.40
2019-01-15T21:29:07.213Z,8.50
2019-01-15T21:31:49.291Z,8.40
2019-01-15T21:34:37.243Z,8.30
2019-01-15T21:37:33.671Z,8.50
2019-01-15T21:40:09.491Z,8.50
2019-01-15T21:42:56.453Z,8.40
2019-01-15T21:45:35.692Z,8.40
2019-01-15T21:48:35.900Z,8.50
2019-01-15T21:51:29.579Z,8.40
2019-01-15T21:54:14.122Z,8.50
2019-01-15T21:57:04.217Z,8.50
2019-01-15T21:59:44.188Z,8.50
2019-01-15T22:02:20.652Z,8.50
2019-01-15T22:05:11.447Z,8.50
2019-01-15T22:08:05.016Z,8.50
2019-01-15T22:10:53.264Z,8.50
2019-01-15T22:13:51.024Z,8.50
2019-01-15T22:16:37.222Z,8.50
2019-01-15T22:19:23.020Z,8.50
2019-01-15T22:22:20.394Z,8.40
2019-01-15T22:25:23.155Z,8.50
2019-01-15T22:28:18.467Z,8.50
2019-01-15T22:31:09.855Z,8.50
2019-01-15T22:34:10.055Z,7.50
2019-01-15T22:37:07.576Z,8.30
2019-01-15T22:39:53.660Z,8.30
2019-01-15T22:42:32.389Z,8.50
2019-01-15T22:45:28.015Z,8.50
2019-01-15T22:48:15.636Z,8.50
2019-01-15T22:51:03.467Z,8.50
2019-01-15T22:53:53.039Z,8.50
2019-01-15T22:56:37.395Z,8.50
2019-01-15T22:59:16.033Z,8.50
2019-01-15T23:02:04.361Z,8.40
2019-01-15T23:04:46.771Z,8.50
2019-01-15T23:07:33.278Z,8.50
2019-01-15T23:10:21.821Z,8.50
2019-01-15T23:13:00.857Z,8.50
2019-01-15T23:15:50.526Z,8.30
2019-01-15T23:18:52.940Z,8.30
2019-01-15T23:21:39.715Z,8.30
2019-01-15T23:24:26.004Z,8.30
2019-01-15T23:27:11.907Z,8.30
2019-01-15T23:29:59.647Z,8.40
2019-01-15T23:32:46.971Z,8.40
2019-01-15T23:35:34.793Z,8.40
2019-01-15T23:38:26.929Z,8.40
2019-01-15T23:41:14.255Z,8.50
2019-01-15T23:44:00.451Z,8.40
2019-01-15T23:46:48.130Z,8.40
2019-01-15T23:49:31.315Z,8.50
2019-01-15T23:52:24.566Z,8.50
2019-01-15T23:55:12.212Z,8.40
2019-01-15T23:58:06.153Z,8.40
